Columbus Metropolitan Airport
KCSG : now visible

Airfield :











YOU CAN JOIN US ON...

 
LOGIN :

Register | Disclaimer

   EN    FR    IT 

 









Legend :    VFR   Marginal VFR   IFR   Intensive IFR   Very Intensive IFR
Visi :
Ceiling :
>= 8 km
>= 3000ft
5 to 8 km
1000 to 3000 ft
1500m to 5 km
500 to 1000 ft
800 to 1500m
200 to 500 ft
< 800m
< 200 ft
Symbols :   Thunderstorms  Fog  Heavy snow  Heavy precipitations  Wind > 20 kt







- Airport Elevation : 397 ft
- IATA code : CSG


KCSG - Columbus Metropolitan

CURRENT METAR :
  • 210551Z AUTO 00000KT 10SM CLR 23/22 A3004 RMK AO2 SLP165 T02330217 10267 20233 58009

EXPIRED METARs :
  • 210451Z AUTO 00000KT 10SM CLR 24/22 A3006 RMK AO2 SLP172 T02390217 403280222
  • 210351Z AUTO 00000KT 10SM CLR 24/22 A3007 RMK AO2 SLP178 T02390217

TAF KCSG
Valid from the 21 at 06:00 until the 22 at 06:00 UTC


210541Z 2106/2206 24003KT P6SM SCT100 BKN200
FM211000 25003KT P6SM SCT008 BKN012
TEMPO 2110/2112 6SM BR BKN008
FM211400 22005KT P6SM SCT025
FM211700 23005KT P6SM VCSH SCT045
FM220200 00000KT P6SM SCT150
KZTL FIR / North America



MET'MAP, your aeronautical weather chart ! - Copyright ORBIFLY December 2007 - Disclaimer

ORBIFLY MET'MAP TEAM :

Programming & Development : Alexandra Zaïnal
Concept & Development : Baudouin d'Aumeries
Co-Development & Prog : Marc-Olivier Méhu
Technical & hardware support : Manuel Goepfert

Contact : metmap@orbifly.com




SOURCES & CREDITS :

   NOAA       Earth
Advisory